Flight Track Log - Related Links

Times and Time Zones

All times are in EDT time to prevent confusion due to time zone crossing. See the N924AK flight status page for this flight to view local times or setup timezone preferences in your user account.

Time Position Orientation Groundspeed Altitude Reporting Facility
EDT Latitude Longitude Course Direction KTS MPH feet Rate Location/Type
Sat 10:35:44 PM 39.0000 -77.5667 322° Northwest 238 274 5,600  Level Potomac TRACON
Sat 10:36:45 PM 39.0667 -77.5667 360° North 254 292 8,700 1,686 Climbing Potomac TRACON
Sat 10:37:45 PM 39.1333 -77.5333 21° North 291 335 9,000 149 Climbing Potomac TRACON
Sat 10:38:46 PM 39.1667 -77.4500 63° Northeast 279 321 9,000  Level Potomac TRACON
Sat 10:39:51 PM 39.2000 -77.3500 67° East 286 329 9,000 681 Level Potomac TRACON
Sat 10:41:51 PM 39.2844 -77.1628 60° Northeast 295 339 11,100 1,286 Climbing Washington Center
Sat 10:42:53 PM 39.3172 -77.0428 71° East 320 368 12,900 1,900 Climbing Washington Center
Sat 10:43:51 PM 39.2981 -76.9111 101° East 337 388 14,900 1,866 Climbing Washington Center
Sat 10:44:52 PM 39.2597 -76.7817 111° Southeast 357 411 16,600 1,091 Climbing Washington Center
Sat 10:45:52 PM 39.2172 -76.6497 113° Southeast 374 430 17,100 200 Climbing Washington Center
Sat 10:46:52 PM 39.1767 -76.5153 111° Southeast 387 445 17,000  Descending Washington Center
Sat 10:47:53 PM 39.1358 -76.3836 112° Southeast 399 459 17,100  Climbing Washington Center
Sat 10:48:51 PM 39.0908 -76.2389 112° Southeast 399 459 17,000 -50 Descending Washington Center
Sat 10:49:52 PM 39.0603 -76.1156 108° East 394 453 17,000  Level Washington Center
Sat 10:50:52 PM 39.0483 -75.9739 96° East 394 453 17,000  Level Washington Center
Sat 10:51:53 PM 39.0547 -75.8294 87° East 394 453 17,000  Level Washington Center
Sat 10:52:52 PM 39.0614 -75.6853 87° East 394 453 17,000  Level Washington Center
Sat 10:53:52 PM 39.0656 -75.5381 88° East 400 460 17,000  Level Washington Center
Sat 10:54:51 PM 39.0736 -75.3964 86° East 400 460 17,000  Level Washington Center
Sat 10:55:52 PM 39.0817 -75.2575 86° East 400 460 17,000  Level Washington Center
Sat 10:56:53 PM 39.1167 -75.1261 71° East 400 460 17,000  Level Washington Center
Sat 10:57:51 PM 39.1703 -75.0025 61° Northeast 387 445 17,000  Level Washington Center
Sat 10:58:52 PM 39.2217 -74.8817 61° Northeast 387 445 17,000  Level Washington Center
Sat 10:59:53 PM 39.2750 -74.7550 61° Northeast 392 451 17,000  Level Washington Center
Sat 11:00:51 PM 39.3242 -74.6311 63° Northeast 387 445 17,000  Level Washington Center
Sat 11:01:52 PM 39.3731 -74.5097 62° Northeast 387 445 17,000  Level Washington Center
Sat 11:04:04 PM 39.4942 -74.2169 62° Northeast 381 438 17,000  Level New York Center
Sat 11:05:04 PM 39.5453 -74.1092 58° Northeast 381 438 17,000  Level New York Center
Sat 11:06:07 PM 39.6217 -73.9889 50° Northeast 388 447 17,000  Level New York Center
Sat 11:07:04 PM 39.6911 -73.8839 49° Northeast 388 447 17,000  Level New York Center
Sat 11:08:07 PM 39.7667 -73.7847 45° Northeast 388 447 17,000 -281 Level New York Center
Sat 11:10:16 PM 39.9294 -73.5736 45° Northeast 376 433 16,100 -730 Descending Boston Center
Sat 11:11:16 PM 39.9969 -73.4908 43° Northeast 368 423 14,700 -1,450 Descending Boston Center
Sat 11:12:16 PM 40.0686 -73.3917 47° Northeast 368 423 13,200 -1,400 Descending Boston Center
Sat 11:13:16 PM 40.1422 -73.3006 43° Northeast 362 417 11,900 -1,400 Descending Boston Center
Sat 11:14:16 PM 40.2097 -73.2144 44° Northeast 349 402 10,400 -1,250 Descending Boston Center
Sat 11:15:16 PM 40.2686 -73.1389 44° Northeast 317 365 9,400 -700 Descending Boston Center
Sat 11:16:16 PM 40.3231 -73.0633 47° Northeast 296 341 9,000 -545 Descending Boston Center
Sat 11:17:50 PM 40.4167 -72.9667 38° Northeast 253 291 8,000 -779 Descending New York TRACON
Sat 11:18:50 PM 40.4833 -72.9500 11° North 251 289 7,000 -1,200 Descending New York TRACON
Sat 11:19:50 PM 40.5500 -72.9667 349° North 239 275 5,600 -1,450 Descending New York TRACON
Sat 11:20:50 PM 40.6167 -73.0000 339° North 248 285 4,100 -1,150 Descending New York TRACON
Sat 11:21:50 PM 40.6833 -73.0167 349° North 241 277 3,300 -1,000 Descending New York TRACON
Sat 11:22:56 PM 40.7500 -73.0000 11° North 228 262 2,000 -810 Descending New York TRACON
Sat 11:23:56 PM 40.8167 -73.0000 360° North 163 188 1,600 -250 Descending New York TRACON
Sat 11:24:56 PM 40.8333 -73.0333 303° West 145 167 1,500 -350 Descending New York TRACON
Sat 11:25:56 PM 40.8333 -73.0667 270° West 117 135 900 -600 Descending New York TRACON
Sat 11:27:00 PM 40.7952 -73.1002 237° Southwest  Level Estimated
Sat 11:34:00 PM 40.7952 -73.1002 237° Southwest  Level Estimated
Sat 11:35:00 PM 40.7952 -73.1002 237° Southwest  Level Estimated
Sat 11:36:00 PM 40.7952 -73.1002 237° Southwest  Level Estimated

Login

Don't have an account? Register now (free) for customized features, flight alerts, and more!